Maclean, Virginia
Current Conditions -  °F | °C
As of 9:52 AM on Saturday 20 Dec 2014 (Local Time) from KIAD Reporting Station
Clear Clear  
Wind Chill: 25°   Ceiling: Unl
Heat Index: 30°   Visibility: 10mi
Dew Point: 21°   Wind: 5mph
Humidity: 69%   Direction: 330°NNW
Pressure: 30.33"   Gusts: NA
Location:  38.9512°N, 77.2307°W
Report Text: KIAD 201452Z 33004KT 10SM CLR M01/M06 A3033 RMK AO2 SLP275 T10111061 53012
Loading
Personal Weather Stations






























Interactive Weather Map New forecast layout! Learn more

10-Day Weather Forecast

Advertisements
Track Severe Weather on mobile